Time;durP1;ratioP1;P1;durP2;ratioP2;P2;SDS_P1;SDS_P2;PMS_P1;PMS_P2;Temp;Humidity;BMP_temperature;BMP_pressure;BME280_temperature;BME280_humidity;BME280_pressure;Samples;Min_cycle;Max_cycle;Signal;HPM_P1;HPM_P2
2023/06/10 00:00:41;;;;;;;;;;;18.70;75.50;;;;;;4986511;28;20366;-42
2023/06/10 00:03:08;;;;;;;;;;;18.60;74.90;;;;;;4990766;28;19921;-42
2023/06/10 00:05:35;;;;;;;;;;;18.60;74.70;;;;;;4983393;28;19922;-39
2023/06/10 00:08:06;;;;;;;;;;;18.60;74.20;;;;;;4993114;28;19929;-39
2023/06/10 00:10:34;;;;;;;;;;;18.60;75.10;;;;;;4974033;28;20073;-35
2023/06/10 00:13:03;;;;;;;;;;;18.50;74.60;;;;;;4980388;28;19929;-37
2023/06/10 00:15:30;;;;;;;;;;;18.60;75.80;;;;;;4991969;28;20345;-38
2023/06/10 00:17:57;;;;;;;;;;;18.50;75.40;;;;;;4986981;28;19953;-38
2023/06/10 00:20:24;;;;;;;;;;;18.50;75.50;;;;;;4988187;28;20024;-38
2023/06/10 00:22:51;;;;;;;;;;;18.40;74.90;;;;;;4987898;28;19922;-38
2023/06/10 00:25:18;;;;;;;;;;;18.40;74.80;;;;;;4990583;28;20429;-37
2023/06/10 00:27:44;;;;;;;;;;;18.40;75.50;;;;;;4984463;28;20365;-36
2023/06/10 00:30:13;;;;;;;;;;;18.30;75.00;;;;;;4985037;28;20007;-39
2023/06/10 00:32:39;;;;;;;;;;;18.30;76.00;;;;;;4989010;28;19926;-39
2023/06/10 00:35:06;;;;;;;;;;;18.20;75.50;;;;;;4988361;28;19921;-37
2023/06/10 00:37:34;;;;;;;;;;;18.20;75.20;;;;;;4990821;28;19932;-39
2023/06/10 00:40:01;;;;;;;;;;;18.20;75.10;;;;;;4980865;28;19921;-37
2023/06/10 00:42:28;;;;;;;;;;;18.20;75.90;;;;;;4985033;28;19984;-39
2023/06/10 00:44:55;;;;;;;;;;;18.20;76.80;;;;;;4981742;28;20398;-38
2023/06/10 00:47:23;;;;;;;;;;;18.10;76.20;;;;;;4977446;28;19929;-36
2023/06/10 00:49:50;;;;;;;;;;;18.10;76.80;;;;;;4976271;28;20012;-37
2023/06/10 00:52:17;;;;;;;;;;;18.00;78.70;;;;;;4975184;28;19926;-40
2023/06/10 00:54:43;;;;;;;;;;;18.00;76.70;;;;;;4986634;28;19926;-42
2023/06/10 00:57:10;;;;;;;;;;;18.00;76.90;;;;;;4985644;28;20009;-38
2023/06/10 00:59:36;;;;;;;;;;;17.90;77.20;;;;;;4983648;28;20294;-38
2023/06/10 01:02:04;;;;;;;;;;;17.90;78.50;;;;;;4990761;28;19972;-38
2023/06/10 01:04:32;;;;;;;;;;;17.90;77.10;;;;;;4979728;28;20005;-42
2023/06/10 01:07:01;;;;;;;;;;;17.80;77.10;;;;;;4983938;28;19928;-37
2023/06/10 01:09:30;;;;;;;;;;;17.80;77.60;;;;;;4987703;28;19922;-38
2023/06/10 01:11:58;;;;;;;;;;;17.80;77.50;;;;;;4975159;28;19996;-33
2023/06/10 01:14:25;;;;;;;;;;;17.80;77.50;;;;;;4993598;28;20027;-39
2023/06/10 01:16:52;;;;;;;;;;;17.70;80.20;;;;;;4977044;28;19973;-36
2023/06/10 01:19:19;;;;;;;;;;;17.70;79.30;;;;;;4985655;28;19928;-40
2023/06/10 01:21:48;;;;;;;;;;;17.70;77.60;;;;;;4992383;28;19996;-36
2023/06/10 01:24:18;;;;;;;;;;;17.70;78.30;;;;;;4979833;28;19926;-41
2023/06/10 01:26:44;;;;;;;;;;;17.70;78.20;;;;;;4989132;28;19968;-36
2023/06/10 01:29:12;;;;;;;;;;;17.60;78.30;;;;;;4984552;28;19922;-36
2023/06/10 01:31:41;;;;;;;;;;;17.60;77.60;;;;;;4974797;28;19953;-35
2023/06/10 01:34:08;;;;;;;;;;;17.50;78.90;;;;;;4975136;28;20268;-38
2023/06/10 01:36:35;;;;;;;;;;;17.50;78.00;;;;;;4975884;28;20054;-39
2023/06/10 01:39:03;;;;;;;;;;;17.50;78.30;;;;;;4978185;28;20009;-37
2023/06/10 01:41:30;;;;;;;;;;;17.50;77.70;;;;;;4973937;28;20418;-39
2023/06/10 01:43:56;;;;;;;;;;;17.50;77.50;;;;;;4974000;28;20367;-38
2023/06/10 01:46:23;;;;;;;;;;;17.40;78.10;;;;;;4987134;28;19981;-40
2023/06/10 01:48:50;;;;;;;;;;;17.40;78.30;;;;;;4974406;28;19982;-38
2023/06/10 01:51:16;;;;;;;;;;;17.40;78.40;;;;;;4974670;28;20033;-41
2023/06/10 01:53:43;;;;;;;;;;;17.40;78.60;;;;;;4983999;28;20004;-38
2023/06/10 01:56:16;;;;;;;;;;;17.30;79.00;;;;;;4988033;28;19921;-36
2023/06/10 01:58:43;;;;;;;;;;;17.30;79.00;;;;;;4992463;28;20468;-39
2023/06/10 02:01:10;;;;;;;;;;;17.20;80.60;;;;;;4988779;28;20342;-36
2023/06/10 02:03:36;;;;;;;;;;;17.20;79.30;;;;;;4977571;28;20012;-32
2023/06/10 02:06:03;;;;;;;;;;;17.20;79.00;;;;;;4978696;28;20033;-39
2023/06/10 02:08:29;;;;;;;;;;;17.10;79.10;;;;;;4981862;28;19965;-37
2023/06/10 02:10:56;;;;;;;;;;;17.10;79.30;;;;;;4987817;28;20024;-38
2023/06/10 02:13:24;;;;;;;;;;;17.00;79.20;;;;;;4988787;28;19922;-37
2023/06/10 02:15:53;;;;;;;;;;;17.00;80.10;;;;;;4991758;28;19925;-38
2023/06/10 02:18:20;;;;;;;;;;;17.00;79.00;;;;;;4982951;28;19922;-39
2023/06/10 02:20:47;;;;;;;;;;;16.90;80.40;;;;;;4987342;28;20417;-38
2023/06/10 02:23:13;;;;;;;;;;;16.90;80.10;;;;;;4986874;28;19973;-37
2023/06/10 02:25:40;;;;;;;;;;;16.90;80.60;;;;;;4987044;28;19921;-40
2023/06/10 02:28:07;;;;;;;;;;;16.80;81.30;;;;;;4980497;28;19934;-36
2023/06/10 02:30:36;;;;;;;;;;;16.80;81.00;;;;;;4987226;28;19922;-37
2023/06/10 02:33:03;;;;;;;;;;;16.80;81.10;;;;;;4983140;28;19937;-38
2023/06/10 02:35:30;;;;;;;;;;;16.70;80.60;;;;;;4987035;28;20445;-37
2023/06/10 02:37:56;;;;;;;;;;;16.70;80.50;;;;;;4987164;28;20023;-39
2023/06/10 02:40:23;;;;;;;;;;;16.70;83.10;;;;;;4987640;28;19983;-36
2023/06/10 02:42:49;;;;;;;;;;;16.60;81.80;;;;;;4982870;28;19973;-36
2023/06/10 02:45:16;;;;;;;;;;;16.60;81.00;;;;;;4982361;28;19964;-39
2023/06/10 02:47:44;;;;;;;;;;;16.60;82.20;;;;;;4986114;28;20401;-41
2023/06/10 02:50:11;;;;;;;;;;;16.50;81.70;;;;;;4983291;28;19972;-35
2023/06/10 02:52:37;;;;;;;;;;;16.50;82.30;;;;;;4982557;28;19930;-35
2023/06/10 02:55:05;;;;;;;;;;;16.50;81.70;;;;;;4985449;28;20386;-36
2023/06/10 02:57:31;;;;;;;;;;;16.40;81.20;;;;;;4984047;28;20298;-35
2023/06/10 02:59:59;;;;;;;;;;;16.40;81.80;;;;;;4986996;28;19922;-37
2023/06/10 03:02:28;;;;;;;;;;;16.40;82.50;;;;;;4984038;28;19930;-38
2023/06/10 03:04:56;;;;;;;;;;;16.40;83.20;;;;;;4985000;28;20017;-38
2023/06/10 03:07:22;;;;;;;;;;;16.30;83.20;;;;;;4987126;28;19928;-35
2023/06/10 03:09:49;;;;;;;;;;;16.30;82.80;;;;;;4984590;28;19969;-33
2023/06/10 03:12:16;;;;;;;;;;;16.20;82.40;;;;;;4983975;28;19997;-36
2023/06/10 03:14:42;;;;;;;;;;;16.20;83.20;;;;;;4984193;28;20386;-37
2023/06/10 03:17:09;;;;;;;;;;;16.20;83.30;;;;;;4987380;28;20039;-40
2023/06/10 03:19:37;;;;;;;;;;;16.20;82.70;;;;;;4983919;28;20461;-35
2023/06/10 03:22:09;;;;;;;;;;;16.10;83.10;;;;;;4985335;28;19922;-38
2023/06/10 03:24:39;;;;;;;;;;;16.10;82.70;;;;;;4979781;28;19926;-37
2023/06/10 03:27:07;;;;;;;;;;;16.10;83.10;;;;;;4973311;28;20462;-36
2023/06/10 03:29:33;;;;;;;;;;;16.10;82.90;;;;;;4980855;28;19965;-35
2023/06/10 03:32:00;;;;;;;;;;;16.10;85.30;;;;;;4973554;28;20375;-39
2023/06/10 03:34:27;;;;;;;;;;;16.00;84.30;;;;;;4987031;28;19965;-37
2023/06/10 03:36:53;;;;;;;;;;;16.00;84.00;;;;;;4989668;28;19976;-37
2023/06/10 03:39:21;;;;;;;;;;;16.00;85.10;;;;;;4980323;28;20351;-38
2023/06/10 03:41:48;;;;;;;;;;;15.90;84.90;;;;;;4973804;28;19965;-35
2023/06/10 03:44:14;;;;;;;;;;;15.90;84.50;;;;;;4973104;28;20017;-40
2023/06/10 03:46:41;;;;;;;;;;;15.90;86.60;;;;;;4986788;28;20398;-38
2023/06/10 03:49:09;;;;;;;;;;;15.80;85.70;;;;;;4990629;28;20377;-35
2023/06/10 03:51:36;;;;;;;;;;;15.90;85.20;;;;;;4991665;28;19945;-39
2023/06/10 03:54:03;;;;;;;;;;;15.80;88.30;;;;;;4992725;28;19929;-39
2023/06/10 03:56:31;;;;;;;;;;;15.80;87.00;;;;;;4979023;28;19922;-37
2023/06/10 03:58:58;;;;;;;;;;;15.90;87.10;;;;;;4976949;28;19969;-39
2023/06/10 04:01:25;;;;;;;;;;;15.80;86.20;;;;;;4978965;28;19929;-37
2023/06/10 04:03:53;;;;;;;;;;;15.80;86.10;;;;;;4976150;28;20475;-35
2023/06/10 04:06:22;;;;;;;;;;;15.80;86.60;;;;;;4974461;28;19922;-36
2023/06/10 04:08:49;;;;;;;;;;;15.80;86.20;;;;;;4992822;28;19929;-36
2023/06/10 04:11:15;;;;;;;;;;;15.80;86.80;;;;;;4989052;28;19953;-38
2023/06/10 04:13:43;;;;;;;;;;;15.80;87.30;;;;;;4982914;28;19969;-34
2023/06/10 04:16:10;;;;;;;;;;;15.80;90.20;;;;;;4976041;28;19965;-35
2023/06/10 04:18:37;;;;;;;;;;;15.70;90.00;;;;;;4984030;28;20007;-39
2023/06/10 04:21:03;;;;;;;;;;;15.70;91.30;;;;;;4987648;28;19993;-36
2023/06/10 04:23:30;;;;;;;;;;;15.70;90.70;;;;;;4977532;28;19926;-40
2023/06/10 04:25:56;;;;;;;;;;;15.70;91.00;;;;;;4993800;28;20401;-35
2023/06/10 04:28:23;;;;;;;;;;;15.60;91.80;;;;;;4977414;28;19922;-40
2023/06/10 04:30:51;;;;;;;;;;;15.60;92.80;;;;;;4994624;28;19922;-33
2023/06/10 04:33:18;;;;;;;;;;;15.60;93.50;;;;;;4976382;28;19922;-37
2023/06/10 04:35:45;;;;;;;;;;;15.60;94.20;;;;;;4976499;28;20391;-37
2023/06/10 04:38:12;;;;;;;;;;;15.60;94.60;;;;;;4982533;28;19937;-35
2023/06/10 04:40:40;;;;;;;;;;;15.60;95.50;;;;;;4975700;28;19922;-38
2023/06/10 04:43:06;;;;;;;;;;;15.60;94.80;;;;;;4975903;28;20012;-38
2023/06/10 04:45:33;;;;;;;;;;;15.60;95.80;;;;;;4976141;28;19929;-36
2023/06/10 04:48:01;;;;;;;;;;;15.60;96.60;;;;;;4989247;28;20029;-39
2023/06/10 04:50:28;;;;;;;;;;;15.60;96.10;;;;;;4989355;28;19926;-38
2023/06/10 04:52:56;;;;;;;;;;;15.70;96.70;;;;;;5005122;28;20024;-37
2023/06/10 04:55:23;;;;;;;;;;;15.70;96.60;;;;;;4981527;28;19928;-37
2023/06/10 04:57:50;;;;;;;;;;;15.70;96.20;;;;;;4989881;28;19921;-39
2023/06/10 05:00:17;;;;;;;;;;;15.70;98.00;;;;;;4991592;28;20009;-36
2023/06/10 05:02:44;;;;;;;;;;;15.70;97.70;;;;;;4991105;28;20020;-39
2023/06/10 05:05:12;;;;;;;;;;;15.70;98.80;;;;;;4979532;28;19922;-37
2023/06/10 05:07:39;;;;;;;;;;;15.80;98.40;;;;;;4974594;28;20022;-37
2023/06/10 05:10:06;;;;;;;;;;;15.80;97.90;;;;;;4986870;28;19972;-33
2023/06/10 05:12:33;;;;;;;;;;;15.80;98.80;;;;;;4975381;28;20352;-35
2023/06/10 05:15:00;;;;;;;;;;;15.90;98.70;;;;;;4978520;28;19980;-37
2023/06/10 05:17:27;;;;;;;;;;;15.90;99.40;;;;;;4978808;28;20108;-36
2023/06/10 05:19:53;;;;;;;;;;;16.00;99.70;;;;;;4982774;28;19922;-40
2023/06/10 05:22:23;;;;;;;;;;;16.10;98.70;;;;;;4980206;28;20375;-39
2023/06/10 05:24:50;;;;;;;;;;;16.10;99.90;;;;;;4988945;28;19969;-38
2023/06/10 05:27:17;;;;;;;;;;;16.20;99.90;;;;;;4990629;28;19972;-37
2023/06/10 05:29:45;;;;;;;;;;;16.20;99.90;;;;;;4990322;28;20016;-40
2023/06/10 05:32:11;;;;;;;;;;;16.30;99.90;;;;;;4981962;28;19928;-36
2023/06/10 05:34:38;;;;;;;;;;;16.40;99.90;;;;;;4986578;28;19969;-36
2023/06/10 05:37:08;;;;;;;;;;;16.50;99.90;;;;;;4982890;28;19975;-37
2023/06/10 05:39:38;;;;;;;;;;;16.50;99.90;;;;;;4989771;28;20407;-39
2023/06/10 05:42:06;;;;;;;;;;;16.60;99.90;;;;;;4977201;28;20279;-40
2023/06/10 05:44:33;;;;;;;;;;;16.70;99.90;;;;;;4980136;28;19926;-38
2023/06/10 05:46:59;;;;;;;;;;;16.80;99.90;;;;;;4987106;28;20425;-36
2023/06/10 05:49:26;;;;;;;;;;;16.90;99.90;;;;;;4989740;28;19981;-38
2023/06/10 05:51:53;;;;;;;;;;;17.00;99.90;;;;;;4988702;28;19969;-37
2023/06/10 05:54:19;;;;;;;;;;;17.10;99.90;;;;;;4976241;28;19921;-36
2023/06/10 05:56:47;;;;;;;;;;;17.30;99.90;;;;;;4985590;28;20005;-37
2023/06/10 05:59:14;;;;;;;;;;;17.30;99.90;;;;;;4985268;28;20150;-37
2023/06/10 06:01:40;;;;;;;;;;;17.40;99.90;;;;;;4975453;28;19962;-39
2023/06/10 06:04:07;;;;;;;;;;;17.50;99.90;;;;;;4975677;28;19925;-36
2023/06/10 06:06:34;;;;;;;;;;;17.60;99.90;;;;;;4981911;28;19957;-35
2023/06/10 06:09:01;;;;;;;;;;;17.70;99.90;;;;;;4994816;28;20386;-41
2023/06/10 06:11:27;;;;;;;;;;;17.80;99.90;;;;;;4979451;28;19964;-41
2023/06/10 06:13:55;;;;;;;;;;;17.90;99.90;;;;;;4983288;28;20013;-40
2023/06/10 06:16:22;;;;;;;;;;;18.00;99.90;;;;;;4991582;28;19929;-39
2023/06/10 06:18:49;;;;;;;;;;;18.00;99.90;;;;;;4973829;28;19971;-39
2023/06/10 06:21:15;;;;;;;;;;;18.20;99.90;;;;;;4986857;28;20484;-42
2023/06/10 06:23:42;;;;;;;;;;;18.30;99.90;;;;;;4986988;28;19929;-40
2023/06/10 06:26:09;;;;;;;;;;;18.50;99.90;;;;;;4973998;28;19925;-38
2023/06/10 06:28:35;;;;;;;;;;;18.60;99.90;;;;;;4984568;28;19984;-39
2023/06/10 06:31:03;;;;;;;;;;;18.70;99.90;;;;;;4972935;28;20001;-38
2023/06/10 06:33:30;;;;;;;;;;;18.80;99.80;;;;;;4975636;28;19985;-38
2023/06/10 06:35:57;;;;;;;;;;;18.90;99.50;;;;;;4983972;28;19922;-37
2023/06/10 06:38:23;;;;;;;;;;;19.00;99.50;;;;;;4979553;28;20358;-40
2023/06/10 06:40:50;;;;;;;;;;;19.20;99.10;;;;;;4986227;28;19929;-38
2023/06/10 06:43:17;;;;;;;;;;;19.30;98.60;;;;;;4984231;28;20016;-42
2023/06/10 06:45:43;;;;;;;;;;;19.50;98.80;;;;;;4977513;28;19926;-36
2023/06/10 06:48:11;;;;;;;;;;;19.60;98.50;;;;;;4985252;28;19958;-36
2023/06/10 06:50:38;;;;;;;;;;;19.70;98.30;;;;;;4983314;28;20012;-38
2023/06/10 06:53:05;;;;;;;;;;;19.90;97.90;;;;;;4979156;28;19961;-42
2023/06/10 06:55:31;;;;;;;;;;;20.00;98.00;;;;;;4985390;28;19961;-42
2023/06/10 06:57:58;;;;;;;;;;;20.10;97.70;;;;;;4990341;28;19928;-38
2023/06/10 07:00:25;;;;;;;;;;;20.30;97.40;;;;;;4989947;28;19941;-40
2023/06/10 07:02:51;;;;;;;;;;;20.40;97.00;;;;;;4991657;28;19972;-38
2023/06/10 07:05:19;;;;;;;;;;;20.50;96.70;;;;;;4974447;28;19930;-41
2023/06/10 07:07:46;;;;;;;;;;;20.60;96.20;;;;;;4987113;28;19961;-41
2023/06/10 07:10:14;;;;;;;;;;;20.60;96.30;;;;;;4981528;28;19968;-41
2023/06/10 07:12:41;;;;;;;;;;;20.80;96.20;;;;;;4972610;28;19926;-42
2023/06/10 07:15:08;;;;;;;;;;;20.90;96.20;;;;;;4972083;28;19922;-42
2023/06/10 07:17:35;;;;;;;;;;;21.10;95.90;;;;;;4973543;28;20010;-39
2023/06/10 07:20:01;;;;;;;;;;;21.30;95.80;;;;;;4974160;28;20305;-40
2023/06/10 07:22:29;;;;;;;;;;;21.50;95.40;;;;;;4972864;28;20003;-42
2023/06/10 07:24:56;;;;;;;;;;;21.70;95.40;;;;;;4976919;28;19965;-40
2023/06/10 07:27:22;;;;;;;;;;;21.80;94.80;;;;;;4982181;28;19922;-38
2023/06/10 07:29:49;;;;;;;;;;;21.80;94.70;;;;;;4979397;28;19957;-42
2023/06/10 07:32:16;;;;;;;;;;;22.00;94.70;;;;;;4976471;28;19977;-39
2023/06/10 07:34:42;;;;;;;;;;;22.20;94.40;;;;;;4994584;28;19972;-41
2023/06/10 07:37:09;;;;;;;;;;;22.30;94.20;;;;;;4987867;28;19930;-39
2023/06/10 07:39:37;;;;;;;;;;;22.40;93.60;;;;;;4976644;28;19926;-41
2023/06/10 07:42:04;;;;;;;;;;;22.40;92.90;;;;;;4974679;28;20378;-41
2023/06/10 07:44:31;;;;;;;;;;;22.40;93.10;;;;;;4978035;28;20362;-41
2023/06/10 07:46:58;;;;;;;;;;;22.50;93.00;;;;;;4986600;28;19922;-40
2023/06/10 07:49:24;;;;;;;;;;;22.70;93.00;;;;;;4987800;28;19926;-40
2023/06/10 07:51:51;;;;;;;;;;;22.80;92.30;;;;;;4983509;28;19926;-43
2023/06/10 07:54:18;;;;;;;;;;;22.90;92.00;;;;;;4994587;28;19968;-42
2023/06/10 07:56:46;;;;;;;;;;;22.90;92.00;;;;;;4988444;28;19929;-39
2023/06/10 07:59:12;;;;;;;;;;;23.00;92.00;;;;;;4979414;28;20275;-42
2023/06/10 08:01:39;;;;;;;;;;;23.20;92.00;;;;;;4984544;28;20377;-43
2023/06/10 08:04:06;;;;;;;;;;;23.40;92.30;;;;;;4988706;28;20282;-43
2023/06/10 08:06:33;;;;;;;;;;;23.60;91.70;;;;;;4975845;28;20326;-42
2023/06/10 08:09:00;;;;;;;;;;;23.70;91.50;;;;;;4975932;28;19922;-42
2023/06/10 08:11:28;;;;;;;;;;;23.90;91.60;;;;;;4975559;28;19926;-42
2023/06/10 08:13:58;;;;;;;;;;;24.10;90.60;;;;;;4986003;28;19921;-42
2023/06/10 08:16:25;;;;;;;;;;;24.30;90.40;;;;;;4993593;28;19976;-43
2023/06/10 08:18:52;;;;;;;;;;;24.40;90.40;;;;;;4979727;28;19976;-42
2023/06/10 08:21:19;;;;;;;;;;;24.50;90.30;;;;;;4990482;28;20005;-43
2023/06/10 08:23:46;;;;;;;;;;;24.60;88.90;;;;;;4993886;28;20352;-41
2023/06/10 08:26:12;;;;;;;;;;;24.70;88.20;;;;;;4987536;28;19969;-43
2023/06/10 08:28:39;;;;;;;;;;;24.80;85.20;;;;;;4982358;28;20009;-42
2023/06/10 08:31:07;;;;;;;;;;;24.80;85.70;;;;;;4986379;28;20422;-43
2023/06/10 08:33:33;;;;;;;;;;;24.90;84.40;;;;;;4986300;28;20444;-40
2023/06/10 08:36:00;;;;;;;;;;;25.00;85.40;;;;;;4977399;28;19922;-42
2023/06/10 08:38:27;;;;;;;;;;;25.00;84.30;;;;;;4974756;28;19977;-42
2023/06/10 08:40:54;;;;;;;;;;;25.20;84.30;;;;;;4973713;28;19926;-43
2023/06/10 08:43:22;;;;;;;;;;;25.30;84.60;;;;;;4980401;28;19922;-39
2023/06/10 08:45:48;;;;;;;;;;;25.50;84.80;;;;;;4974521;28;19922;-42
2023/06/10 08:48:16;;;;;;;;;;;25.70;83.80;;;;;;4975962;28;19969;-42
2023/06/10 08:50:43;;;;;;;;;;;25.90;83.90;;;;;;4975116;28;20410;-43
2023/06/10 08:53:10;;;;;;;;;;;26.10;84.40;;;;;;4985554;28;20378;-41
2023/06/10 08:55:37;;;;;;;;;;;26.30;81.70;;;;;;4976934;28;20053;-42
2023/06/10 08:58:03;;;;;;;;;;;26.30;79.40;;;;;;4986572;28;19980;-43
2023/06/10 09:00:30;;;;;;;;;;;26.30;76.90;;;;;;4991427;28;19921;-43
2023/06/10 09:02:57;;;;;;;;;;;26.10;73.90;;;;;;4991254;28;20024;-41
2023/06/10 09:05:25;;;;;;;;;;;26.10;76.60;;;;;;4982969;28;19983;-41
2023/06/10 09:07:51;;;;;;;;;;;26.20;74.80;;;;;;4974816;28;19973;-43
2023/06/10 09:10:18;;;;;;;;;;;26.30;76.60;;;;;;4973751;28;19969;-43
2023/06/10 09:12:45;;;;;;;;;;;26.30;72.80;;;;;;4976765;28;19965;-41
2023/06/10 09:15:14;;;;;;;;;;;26.30;71.70;;;;;;4982555;28;19965;-40
2023/06/10 09:17:41;;;;;;;;;;;26.30;72.60;;;;;;4978665;28;19929;-42
2023/06/10 09:20:08;;;;;;;;;;;26.30;72.70;;;;;;4988484;28;19921;-42
2023/06/10 09:22:36;;;;;;;;;;;26.50;74.10;;;;;;4978397;28;19926;-44
2023/06/10 09:25:03;;;;;;;;;;;26.70;73.10;;;;;;4983167;28;19968;-44
2023/06/10 09:27:30;;;;;;;;;;;26.90;69.80;;;;;;4985133;28;19929;-44
2023/06/10 09:29:58;;;;;;;;;;;26.90;71.20;;;;;;4980379;28;19972;-43
2023/06/10 09:32:24;;;;;;;;;;;27.10;71.50;;;;;;4976579;28;19922;-41
2023/06/10 09:34:51;;;;;;;;;;;27.20;69.70;;;;;;4982305;28;20004;-42
2023/06/10 09:37:24;;;;;;;;;;;27.30;69.80;;;;;;4987447;28;19925;-44
2023/06/10 09:40:05;;;;;;;;;;;27.40;69.60;;;;;;4974081;28;20365;-42
2023/06/10 09:42:35;;;;;;;;;;;27.40;68.70;;;;;;4979958;28;19921;-44
2023/06/10 09:45:02;;;;;;;;;;;27.60;66.40;;;;;;4985132;28;20060;-44
2023/06/10 09:47:29;;;;;;;;;;;27.60;67.80;;;;;;4981034;28;19929;-44
2023/06/10 09:49:55;;;;;;;;;;;27.70;66.20;;;;;;4979261;28;19930;-42
2023/06/10 09:52:23;;;;;;;;;;;27.80;68.70;;;;;;4980232;28;19976;-43
2023/06/10 09:54:49;;;;;;;;;;;28.10;68.60;;;;;;4978920;28;19928;-44
2023/06/10 09:57:17;;;;;;;;;;;28.10;64.30;;;;;;4974726;28;19922;-44
2023/06/10 09:59:45;;;;;;;;;;;28.20;67.10;;;;;;4977384;28;20012;-44
2023/06/10 10:02:14;;;;;;;;;;;28.20;63.90;;;;;;4974517;28;19937;-36
2023/06/10 10:04:40;;;;;;;;;;;28.20;63.90;;;;;;4984717;28;19993;-43
2023/06/10 10:07:08;;;;;;;;;;;28.20;64.70;;;;;;4980046;28;19922;-45
2023/06/10 10:09:36;;;;;;;;;;;28.40;63.90;;;;;;4975458;28;20309;-44
2023/06/10 10:12:03;;;;;;;;;;;28.50;64.30;;;;;;4978102;28;20028;-44
2023/06/10 10:14:31;;;;;;;;;;;28.60;63.10;;;;;;4987337;28;19930;-44
2023/06/10 10:16:58;;;;;;;;;;;28.70;62.30;;;;;;4980621;28;20372;-44
2023/06/10 10:19:26;;;;;;;;;;;28.70;59.70;;;;;;4986348;28;19922;-43
2023/06/10 10:21:53;;;;;;;;;;;28.80;60.60;;;;;;4985098;28;20016;-44
2023/06/10 10:24:21;;;;;;;;;;;28.90;58.60;;;;;;4983087;28;19929;-42
2023/06/10 10:26:48;;;;;;;;;;;28.90;61.70;;;;;;4986844;28;19929;-41
2023/06/10 10:29:15;;;;;;;;;;;29.10;57.60;;;;;;4980420;28;20381;-42
2023/06/10 10:31:44;;;;;;;;;;;29.20;59.00;;;;;;4982041;28;20016;-42
2023/06/10 10:34:13;;;;;;;;;;;29.30;58.60;;;;;;4984923;28;19942;-41
2023/06/10 10:36:39;;;;;;;;;;;29.30;53.80;;;;;;4987241;28;19984;-44
2023/06/10 10:39:07;;;;;;;;;;;29.30;55.50;;;;;;4984637;28;19968;-43
2023/06/10 10:41:35;;;;;;;;;;;29.50;57.20;;;;;;4980733;28;19949;-42
2023/06/10 10:44:01;;;;;;;;;;;29.60;57.40;;;;;;4980303;28;19925;-40
2023/06/10 10:46:28;;;;;;;;;;;29.80;54.60;;;;;;4979421;28;19933;-43
2023/06/10 10:48:56;;;;;;;;;;;29.90;54.60;;;;;;4982250;28;20365;-43
2023/06/10 10:51:23;;;;;;;;;;;30.00;56.20;;;;;;4988592;28;20359;-42
2023/06/10 10:54:04;;;;;;;;;;;30.10;57.50;;;;;;4989877;28;19957;-42
2023/06/10 10:56:31;;;;;;;;;;;30.30;53.00;;;;;;4990648;28;20009;-43
2023/06/10 10:59:03;;;;;;;;;;;30.10;54.80;;;;;;4978866;28;19926;-41
2023/06/10 11:01:32;;;;;;;;;;;30.20;53.80;;;;;;4977342;28;20456;-35
2023/06/10 11:04:00;;;;;;;;;;;30.20;54.60;;;;;;4980904;28;20334;-34
2023/06/10 11:06:27;;;;;;;;;;;30.20;54.30;;;;;;4984522;28;20365;-33
2023/06/10 11:08:54;;;;;;;;;;;30.40;55.10;;;;;;4986889;28;20124;-36
2023/06/10 11:11:21;;;;;;;;;;;30.50;52.70;;;;;;4987183;28;19996;-35
2023/06/10 11:14:01;;;;;;;;;;;30.50;53.20;;;;;;4985194;28;20364;-36
2023/06/10 11:16:28;;;;;;;;;;;30.60;53.60;;;;;;4983721;28;19929;-35
2023/06/10 11:18:54;;;;;;;;;;;30.70;54.30;;;;;;4992852;28;20000;-36
2023/06/10 11:21:22;;;;;;;;;;;31.00;55.70;;;;;;4984131;28;20052;-36
2023/06/10 11:23:50;;;;;;;;;;;31.00;54.20;;;;;;4979186;28;19930;-35
2023/06/10 11:26:21;;;;;;;;;;;31.10;56.40;;;;;;4986291;28;19922;-36
2023/06/10 11:29:08;;;;;;;;;;;31.30;51.20;;;;;;4991084;28;19977;-35
2023/06/10 11:31:35;;;;;;;;;;;31.20;51.50;;;;;;4979145;28;19929;-36
2023/06/10 11:34:02;;;;;;;;;;;31.10;53.70;;;;;;4979428;28;20278;-35
2023/06/10 11:36:30;;;;;;;;;;;31.20;55.00;;;;;;4992807;28;20396;-36
2023/06/10 11:38:57;;;;;;;;;;;31.40;56.00;;;;;;4995116;28;19921;-36
2023/06/10 11:41:25;;;;;;;;;;;31.50;53.50;;;;;;4986678;28;20421;-36
2023/06/10 11:43:52;;;;;;;;;;;31.70;55.00;;;;;;4977141;28;19925;-36
2023/06/10 11:46:19;;;;;;;;;;;31.70;50.40;;;;;;4988152;28;19965;-35
2023/06/10 11:48:49;;;;;;;;;;;31.70;51.90;;;;;;4987701;28;20437;-33
2023/06/10 11:51:16;;;;;;;;;;;31.60;51.90;;;;;;4983645;28;20024;-36
2023/06/10 11:53:45;;;;;;;;;;;31.70;51.70;;;;;;4987586;28;20309;-35
2023/06/10 11:56:12;;;;;;;;;;;31.80;53.00;;;;;;4984485;28;20281;-35
2023/06/10 11:58:39;;;;;;;;;;;32.00;51.10;;;;;;4976120;28;20338;-36
2023/06/10 12:01:05;;;;;;;;;;;32.10;49.70;;;;;;4984140;28;19972;-36
2023/06/10 12:03:36;;;;;;;;;;;32.30;47.30;;;;;;4977557;28;19961;-36
2023/06/10 12:06:05;;;;;;;;;;;32.40;44.20;;;;;;4987735;28;20021;-36
2023/06/10 12:08:32;;;;;;;;;;;32.40;47.30;;;;;;4995188;28;19922;-36
2023/06/10 12:11:00;;;;;;;;;;;32.40;41.70;;;;;;4990189;28;20000;-34
2023/06/10 12:13:27;;;;;;;;;;;32.40;40.10;;;;;;4984305;28;20380;-35
2023/06/10 12:15:54;;;;;;;;;;;32.40;42.10;;;;;;4993457;28;19976;-36
2023/06/10 12:18:21;;;;;;;;;;;32.50;43.90;;;;;;4975373;28;20013;-35
2023/06/10 12:20:48;;;;;;;;;;;32.50;42.10;;;;;;4979154;28;19922;-34
2023/06/10 12:23:15;;;;;;;;;;;32.50;46.70;;;;;;4991633;28;19926;-35
2023/06/10 12:25:50;;;;;;;;;;;32.60;44.40;;;;;;4975179;28;19922;-37
2023/06/10 12:28:19;;;;;;;;;;;32.60;44.80;;;;;;4975710;28;20294;-36
2023/06/10 12:30:45;;;;;;;;;;;32.50;43.90;;;;;;4988300;28;19921;-36
2023/06/10 12:33:16;;;;;;;;;;;32.40;43.00;;;;;;4986455;28;20457;-35
2023/06/10 12:35:47;;;;;;;;;;;32.40;44.80;;;;;;4993689;28;19996;-37
2023/06/10 12:38:14;;;;;;;;;;;32.30;45.20;;;;;;4985783;28;20306;-35
2023/06/10 12:40:41;;;;;;;;;;;32.30;43.50;;;;;;4990481;28;20441;-37
2023/06/10 12:43:07;;;;;;;;;;;32.30;43.70;;;;;;4985896;28;19972;-36
2023/06/10 12:45:35;;;;;;;;;;;32.50;45.10;;;;;;4984280;28;19965;-33
2023/06/10 12:48:06;;;;;;;;;;;32.70;45.90;;;;;;4983046;28;20385;-36
2023/06/10 12:50:33;;;;;;;;;;;33.00;44.90;;;;;;4980346;28;19929;-35
2023/06/10 12:53:00;;;;;;;;;;;33.10;47.00;;;;;;4977592;28;19972;-36
2023/06/10 12:55:26;;;;;;;;;;;33.30;44.20;;;;;;4987957;28;19992;-34
2023/06/10 12:57:53;;;;;;;;;;;33.50;45.90;;;;;;4982186;28;19926;-35
2023/06/10 13:00:20;;;;;;;;;;;33.40;46.10;;;;;;4980616;28;19949;-37
2023/06/10 13:02:48;;;;;;;;;;;33.50;46.10;;;;;;4979556;28;20417;-34
2023/06/10 13:05:16;;;;;;;;;;;33.50;42.40;;;;;;4981645;28;20298;-35
2023/06/10 13:07:44;;;;;;;;;;;33.30;44.20;;;;;;4984051;28;20316;-34
2023/06/10 13:10:11;;;;;;;;;;;33.20;43.40;;;;;;4980070;28;19974;-34
2023/06/10 13:12:37;;;;;;;;;;;33.30;44.90;;;;;;4978227;28;19976;-36
2023/06/10 13:15:04;;;;;;;;;;;33.30;45.00;;;;;;4980707;28;19937;-36
2023/06/10 13:17:31;;;;;;;;;;;33.20;41.30;;;;;;4979137;28;19922;-34
2023/06/10 13:19:59;;;;;;;;;;;32.90;43.90;;;;;;4976824;28;19961;-33
2023/06/10 13:22:26;;;;;;;;;;;32.90;44.10;;;;;;4984099;28;19922;-36
2023/06/10 13:24:53;;;;;;;;;;;32.90;44.30;;;;;;4984171;28;19926;-36
2023/06/10 13:27:20;;;;;;;;;;;32.90;41.40;;;;;;4985877;28;19926;-36
2023/06/10 13:29:46;;;;;;;;;;;32.90;43.60;;;;;;4988880;28;19925;-33
2023/06/10 13:32:13;;;;;;;;;;;32.90;43.10;;;;;;4986877;28;19981;-35
2023/06/10 13:34:45;;;;;;;;;;;33.00;42.00;;;;;;4983704;28;20349;-36
2023/06/10 13:37:13;;;;;;;;;;;33.00;42.00;;;;;;4984274;28;20301;-35
2023/06/10 13:39:40;;;;;;;;;;;33.10;44.10;;;;;;4986905;28;20453;-36
2023/06/10 13:42:07;;;;;;;;;;;33.30;45.00;;;;;;4984533;28;19925;-34
2023/06/10 13:44:36;;;;;;;;;;;33.50;45.60;;;;;;4981199;28;19928;-34
2023/06/10 13:47:03;;;;;;;;;;;33.70;44.00;;;;;;4984628;28;19925;-36
2023/06/10 13:49:29;;;;;;;;;;;33.80;42.10;;;;;;4974719;28;19965;-36
2023/06/10 13:51:56;;;;;;;;;;;33.80;43.10;;;;;;4985340;28;20365;-36
2023/06/10 13:54:24;;;;;;;;;;;33.80;43.40;;;;;;4990029;28;19968;-33
2023/06/10 13:56:50;;;;;;;;;;;33.80;42.60;;;;;;4988776;28;19921;-34
2023/06/10 13:59:17;;;;;;;;;;;33.70;41.10;;;;;;4983063;28;20340;-35
2023/06/10 14:01:44;;;;;;;;;;;33.70;44.70;;;;;;4982906;28;20025;-35
2023/06/10 14:04:11;;;;;;;;;;;33.90;44.00;;;;;;4982430;28;19925;-35
2023/06/10 14:06:37;;;;;;;;;;;34.00;42.00;;;;;;4980654;28;19922;-37
2023/06/10 14:09:04;;;;;;;;;;;34.10;44.50;;;;;;4984388;28;19926;-35
2023/06/10 14:11:32;;;;;;;;;;;34.20;43.10;;;;;;4979291;28;19929;-36
2023/06/10 14:14:00;;;;;;;;;;;34.20;43.00;;;;;;4981391;28;19926;-35
2023/06/10 14:16:27;;;;;;;;;;;34.20;42.70;;;;;;4983620;28;19922;-36